createdAt,value
2018-05-09T00:01:40.615Z,4.13
2018-05-09T00:04:08.196Z,4.50
2018-05-09T00:06:35.716Z,4.57
2018-05-09T00:09:03.306Z,4.70
2018-05-09T00:11:31.602Z,4.20
2018-05-09T00:13:59.214Z,4.33
2018-05-09T00:16:26.752Z,4.97
2018-05-09T00:18:54.313Z,4.60
2018-05-09T00:21:22.614Z,5.20
2018-05-09T00:23:50.168Z,5.00
2018-05-09T00:26:18.495Z,5.40
2018-05-09T00:28:46.050Z,4.83
2018-05-09T00:31:13.626Z,4.67
2018-05-09T00:33:41.481Z,4.93
2018-05-09T00:36:09.789Z,4.90
2018-05-09T00:38:37.331Z,5.20
2018-05-09T00:41:04.932Z,4.00
2018-05-09T00:43:32.469Z,3.67
2018-05-09T00:46:00.040Z,4.10
2018-05-09T00:48:27.578Z,3.80
2018-05-09T00:50:55.169Z,4.03
2018-05-09T00:53:22.670Z,3.80
2018-05-09T00:55:50.228Z,3.57
2018-05-09T00:58:17.777Z,3.97
2018-05-09T01:00:45.352Z,3.70
2018-05-09T01:03:12.888Z,4.27
2018-05-09T01:05:40.464Z,3.83
2018-05-09T01:08:08.005Z,4.00
2018-05-09T01:10:36.320Z,4.10
2018-05-09T01:13:03.871Z,3.73
2018-05-09T01:15:32.226Z,4.20
2018-05-09T01:17:59.801Z,3.97
2018-05-09T01:20:27.337Z,4.17
2018-05-09T01:22:54.911Z,4.20
2018-05-09T01:25:22.473Z,3.93
2018-05-09T01:27:50.016Z,4.17
2018-05-09T01:30:18.359Z,3.97
2018-05-09T01:32:45.935Z,4.47
2018-05-09T01:35:13.494Z,3.73
2018-05-09T01:37:41.084Z,3.93
2018-05-09T01:40:08.661Z,4.07
2018-05-09T01:42:36.203Z,4.63
2018-05-09T01:45:03.813Z,3.90
2018-05-09T01:47:31.316Z,4.10
2018-05-09T01:49:59.642Z,3.67
2018-05-09T01:52:27.212Z,3.60
2018-05-09T01:54:54.813Z,3.90
2018-05-09T01:57:23.080Z,4.40
2018-05-09T01:59:50.604Z,4.00
2018-05-09T02:02:18.144Z,4.20
2018-05-09T02:04:45.698Z,3.90
2018-05-09T02:07:13.251Z,4.57
2018-05-09T02:09:40.766Z,4.23
2018-05-09T02:12:08.345Z,4.73
2018-05-09T02:14:35.869Z,4.17
2018-05-09T02:17:03.436Z,4.60
2018-05-09T02:19:31.005Z,4.30
2018-05-09T02:21:58.536Z,4.53
2018-05-09T02:24:26.043Z,4.70
2018-05-09T02:26:54.395Z,4.00
2018-05-09T02:29:21.971Z,4.10
2018-05-09T02:31:49.535Z,4.67
2018-05-09T02:34:17.071Z,4.13
2018-05-09T02:36:44.604Z,4.60
2018-05-09T02:39:12.914Z,4.37
2018-05-09T02:41:40.471Z,5.03
2018-05-09T02:44:08.833Z,4.40
2018-05-09T02:46:36.380Z,4.03
2018-05-09T02:49:03.900Z,5.40
2018-05-09T02:51:32.212Z,4.23
2018-05-09T02:53:59.782Z,4.10
2018-05-09T02:56:27.388Z,4.83
2018-05-09T02:58:54.960Z,4.70
2018-05-09T03:01:22.501Z,4.17
2018-05-09T03:03:50.050Z,4.37
2018-05-09T03:06:18.427Z,4.80
2018-05-09T03:08:45.957Z,5.07
2018-05-09T03:11:13.494Z,5.37
2018-05-09T03:13:41.829Z,4.60
2018-05-09T03:16:09.385Z,5.03
2018-05-09T03:18:36.950Z,4.60
2018-05-09T03:21:04.520Z,4.73
2018-05-09T03:23:32.081Z,4.90
2018-05-09T03:26:00.379Z,5.30
2018-05-09T03:28:27.917Z,4.70
2018-05-09T03:30:55.470Z,5.53
2018-05-09T03:33:23.112Z,4.83
2018-05-09T03:35:50.747Z,4.90
2018-05-09T03:38:18.304Z,4.63
2018-05-09T03:40:46.700Z,5.87
2018-05-09T03:43:14.255Z,5.10
2018-05-09T03:45:41.777Z,5.40
2018-05-09T03:48:09.344Z,4.90
2018-05-09T03:50:36.902Z,4.87
2018-05-09T03:53:05.196Z,4.43
2018-05-09T03:55:33.512Z,5.00
2018-05-09T03:58:01.044Z,5.20
2018-05-09T04:00:29.373Z,5.10
2018-05-09T04:03:09.891Z,4.67
2018-05-09T04:05:49.338Z,5.13
2018-05-09T04:11:18.601Z,4.10
2018-05-09T04:13:46.127Z,5.90
2018-05-09T04:16:13.644Z,5.50
2018-05-09T04:18:41.182Z,4.80
2018-05-09T04:21:08.732Z,5.77
2018-05-09T04:23:36.280Z,5.27
2018-05-09T04:26:04.595Z,4.87
2018-05-09T04:28:32.120Z,4.90
2018-05-09T04:30:59.662Z,5.47
2018-05-09T04:33:27.835Z,5.70
2018-05-09T04:35:55.387Z,5.10
2018-05-09T04:38:22.953Z,5.07
2018-05-09T04:40:50.525Z,6.10
2018-05-09T04:43:18.142Z,5.03
2018-05-09T04:45:45.774Z,4.93
2018-05-09T04:48:13.463Z,5.80
2018-05-09T04:50:41.032Z,5.50
2018-05-09T04:53:08.546Z,5.50
2018-05-09T04:55:36.177Z,5.70
2018-05-09T04:58:03.700Z,5.80
2018-05-09T05:00:31.302Z,6.40
2018-05-09T05:02:58.892Z,6.90
2018-05-09T05:05:26.434Z,5.60
2018-05-09T05:07:54.808Z,5.80
2018-05-09T05:10:22.318Z,5.73
2018-05-09T05:12:50.684Z,5.67
2018-05-09T05:15:18.986Z,5.40
2018-05-09T05:17:47.495Z,5.07
2018-05-09T05:20:15.143Z,4.73
2018-05-09T05:22:43.578Z,4.83
2018-05-09T05:25:11.182Z,5.17
2018-05-09T05:27:38.792Z,5.67
2018-05-09T05:30:07.102Z,4.90
2018-05-09T05:32:34.612Z,5.07
2018-05-09T05:35:02.138Z,4.97
2018-05-09T05:37:29.748Z,4.10
2018-05-09T05:39:57.380Z,4.53
2018-05-09T05:42:24.935Z,4.67
2018-05-09T05:44:53.317Z,5.20
2018-05-09T05:47:20.830Z,4.30
2018-05-09T05:49:48.565Z,4.87
2018-05-09T05:52:16.275Z,4.07
2018-05-09T05:54:43.887Z,3.83
2018-05-09T05:57:12.202Z,4.03
2018-05-09T05:59:40.039Z,3.90
2018-05-09T06:02:07.660Z,4.47
2018-05-09T06:04:36.027Z,3.90
2018-05-09T06:07:03.584Z,3.40
2018-05-09T06:09:31.329Z,3.70
2018-05-09T06:11:58.900Z,3.93
2018-05-09T06:14:26.571Z,3.47
2018-05-09T06:16:54.245Z,3.27
2018-05-09T06:19:21.853Z,3.37
2018-05-09T06:21:49.513Z,3.27
2018-05-09T06:24:17.136Z,3.47
2018-05-09T06:26:44.668Z,2.90
2018-05-09T06:29:12.309Z,2.83
2018-05-09T06:31:41.073Z,2.60
2018-05-09T06:34:08.661Z,2.60
2018-05-09T06:36:36.189Z,2.83
2018-05-09T06:39:05.308Z,2.60
2018-05-09T06:41:33.178Z,2.67
2018-05-09T06:44:00.758Z,2.40
2018-05-09T06:46:28.278Z,2.37
2018-05-09T06:48:56.572Z,2.20
2018-05-09T06:51:24.089Z,2.07
2018-05-09T06:53:51.713Z,2.87
2018-05-09T06:56:19.980Z,2.20
2018-05-09T06:58:47.501Z,2.00
2018-05-09T07:01:15.012Z,2.40
2018-05-09T07:03:42.544Z,2.20
2018-05-09T07:06:10.151Z,2.20
2018-05-09T07:08:37.655Z,2.10
2018-05-09T07:11:06.006Z,2.20
2018-05-09T07:13:33.612Z,1.90
2018-05-09T07:16:01.921Z,2.25
2018-05-09T07:18:29.440Z,2.10
2018-05-09T07:20:56.986Z,2.35
2018-05-09T07:23:24.493Z,1.73
2018-05-09T07:25:52.057Z,2.00
2018-05-09T07:28:19.728Z,1.75
2018-05-09T07:30:47.245Z,1.90
2018-05-09T07:33:15.525Z,1.90
2018-05-09T07:35:43.827Z,1.67
2018-05-09T07:38:11.338Z,2.12
2018-05-09T07:40:38.857Z,2.00
2018-05-09T07:43:07.163Z,1.70
2018-05-09T07:45:34.700Z,1.85
2018-05-09T07:48:02.201Z,2.05
2018-05-09T07:50:29.762Z,1.73
2018-05-09T07:52:58.060Z,1.70
2018-05-09T07:55:25.656Z,1.80
2018-05-09T07:57:53.201Z,1.70
2018-05-09T08:00:21.497Z,2.00
2018-05-09T08:02:49.032Z,1.98
2018-05-09T08:05:16.557Z,1.80
2018-05-09T08:07:44.056Z,1.60
2018-05-09T08:10:11.694Z,2.45
2018-05-09T08:12:39.189Z,1.70
2018-05-09T08:15:06.770Z,2.30
2018-05-09T08:17:34.275Z,1.83
2018-05-09T08:20:02.602Z,1.50
2018-05-09T08:22:30.111Z,1.60
2018-05-09T08:24:57.619Z,1.55
2018-05-09T08:27:25.137Z,1.58
2018-05-09T08:29:52.662Z,1.48
2018-05-09T08:32:20.978Z,2.00
2018-05-09T08:34:48.477Z,1.80
2018-05-09T08:37:16.046Z,1.52
2018-05-09T08:39:43.645Z,1.50
2018-05-09T08:42:11.244Z,1.87
2018-05-09T08:44:38.782Z,1.52
2018-05-09T08:47:06.350Z,1.62
2018-05-09T08:49:33.905Z,1.67
2018-05-09T08:52:01.442Z,1.48
2018-05-09T08:54:28.955Z,1.40
2018-05-09T08:56:56.472Z,1.75
2018-05-09T08:59:24.853Z,1.48
2018-05-09T09:01:52.296Z,2.10
2018-05-09T09:04:19.875Z,1.37
2018-05-09T09:06:47.419Z,1.40
2018-05-09T09:09:14.939Z,1.35
2018-05-09T09:11:43.334Z,1.42
2018-05-09T09:14:11.631Z,1.70
2018-05-09T09:16:39.141Z,1.33
2018-05-09T09:19:06.671Z,1.40
2018-05-09T09:21:35.107Z,1.50
2018-05-09T09:24:02.702Z,1.58
2018-05-09T09:26:30.219Z,1.40
2018-05-09T09:28:57.742Z,1.30
2018-05-09T09:31:25.350Z,1.50
2018-05-09T09:33:53.711Z,1.58
2018-05-09T09:36:21.257Z,1.50
2018-05-09T09:38:48.794Z,1.85
2018-05-09T09:41:16.331Z,2.37
2018-05-09T09:43:43.926Z,2.90
2018-05-09T09:46:12.229Z,3.10
2018-05-09T09:48:39.766Z,3.30
2018-05-09T09:51:07.278Z,3.73
2018-05-09T09:53:35.121Z,3.50
2018-05-09T09:56:03.558Z,4.43
2018-05-09T09:58:31.090Z,4.60
2018-05-09T10:00:59.395Z,5.07
2018-05-09T10:03:27.845Z,4.93
2018-05-09T10:05:55.417Z,5.10
2018-05-09T10:08:22.990Z,4.90
2018-05-09T10:10:50.504Z,5.30
2018-05-09T10:13:18.798Z,5.60
2018-05-09T10:15:46.369Z,5.67
2018-05-09T10:18:14.995Z,5.13
2018-05-09T10:20:42.509Z,5.63
2018-05-09T10:23:10.445Z,4.83
2018-05-09T10:25:37.900Z,5.43
2018-05-09T10:28:05.809Z,5.13
2018-05-09T10:30:33.421Z,5.50
2018-05-09T10:33:01.707Z,4.83
2018-05-09T10:35:29.260Z,5.10
2018-05-09T10:37:56.777Z,5.07
2018-05-09T10:40:24.510Z,5.57
2018-05-09T10:42:52.438Z,5.60
2018-05-09T10:45:19.981Z,5.67
2018-05-09T10:47:47.497Z,4.93
2018-05-09T10:50:15.143Z,4.60
2018-05-09T10:52:43.412Z,4.40
2018-05-09T10:55:10.928Z,5.03
2018-05-09T10:57:38.432Z,4.63
2018-05-09T11:00:06.014Z,4.60
2018-05-09T11:02:33.973Z,4.73
2018-05-09T11:05:01.567Z,4.70
2018-05-09T11:07:29.061Z,4.67
2018-05-09T11:09:57.386Z,4.50
2018-05-09T11:12:24.930Z,4.37
2018-05-09T11:14:53.320Z,5.47
2018-05-09T11:17:21.597Z,4.43
2018-05-09T11:19:49.921Z,4.47
2018-05-09T11:22:17.487Z,6.93
2018-05-09T11:24:45.209Z,4.60
2018-05-09T11:27:13.478Z,4.00
2018-05-09T11:29:41.094Z,4.40
2018-05-09T11:32:08.761Z,4.43
2018-05-09T11:34:36.277Z,4.13
2018-05-09T11:37:03.795Z,4.27
2018-05-09T11:39:31.316Z,3.77
2018-05-09T11:41:58.962Z,4.00
2018-05-09T11:44:27.231Z,3.93
2018-05-09T11:46:54.781Z,3.87
2018-05-09T11:49:22.417Z,4.37
2018-05-09T11:51:49.954Z,4.33
2018-05-09T11:54:17.537Z,4.50
2018-05-09T11:56:46.046Z,4.17
2018-05-09T11:59:13.569Z,3.87
2018-05-09T12:01:41.115Z,4.43
2018-05-09T12:04:08.773Z,4.63
2018-05-09T12:06:36.328Z,4.80
2018-05-09T12:09:04.603Z,4.63
2018-05-09T12:11:32.135Z,5.30
2018-05-09T12:13:59.640Z,5.20
2018-05-09T12:16:27.285Z,4.50
2018-05-09T12:18:54.798Z,4.57
2018-05-09T12:21:23.070Z,4.93
2018-05-09T12:23:51.365Z,4.20
2018-05-09T12:26:18.973Z,4.80
2018-05-09T12:28:46.748Z,4.73
2018-05-09T12:31:14.393Z,5.43
2018-05-09T12:33:41.932Z,5.00
2018-05-09T12:36:09.560Z,4.60
2018-05-09T12:38:37.893Z,4.77
2018-05-09T12:41:05.391Z,4.50
2018-05-09T12:43:32.914Z,4.60
2018-05-09T12:46:00.457Z,5.00
2018-05-09T12:48:28.765Z,3.77
2018-05-09T12:50:56.353Z,4.80
2018-05-09T12:53:23.885Z,4.80
2018-05-09T12:55:52.154Z,4.07
2018-05-09T12:58:19.748Z,5.50
2018-05-09T13:00:48.019Z,4.57
2018-05-09T13:03:16.448Z,4.17
2018-05-09T13:05:44.057Z,4.70
2018-05-09T13:08:12.297Z,4.60
2018-05-09T13:10:40.847Z,4.77
2018-05-09T13:13:08.427Z,4.47
2018-05-09T13:15:35.952Z,4.53
2018-05-09T13:18:03.492Z,4.20
2018-05-09T13:20:31.036Z,4.43
2018-05-09T13:22:58.533Z,4.70
2018-05-09T13:25:26.061Z,4.33
2018-05-09T13:27:53.649Z,4.03
2018-05-09T13:30:21.175Z,4.30
2018-05-09T13:32:48.685Z,4.00
2018-05-09T13:35:16.329Z,4.40
2018-05-09T13:37:43.840Z,5.10
2018-05-09T13:40:11.526Z,4.40
2018-05-09T13:42:39.012Z,4.30
2018-05-09T13:45:07.354Z,5.10
2018-05-09T13:47:34.922Z,4.67
2018-05-09T13:50:02.459Z,4.37
2018-05-09T13:52:30.784Z,4.20
2018-05-09T13:54:58.306Z,4.50
2018-05-09T13:57:26.589Z,4.40
2018-05-09T13:59:54.113Z,4.60
2018-05-09T14:02:21.666Z,4.40
2018-05-09T14:04:49.191Z,4.90
2018-05-09T14:07:16.786Z,5.07
2018-05-09T14:09:44.415Z,3.93
2018-05-09T14:12:11.878Z,4.77
2018-05-09T14:14:39.410Z,4.53
2018-05-09T14:17:07.682Z,4.30
2018-05-09T14:19:35.216Z,4.20
2018-05-09T14:22:02.732Z,4.37
2018-05-09T14:24:30.341Z,4.80
2018-05-09T14:26:57.902Z,5.10
2018-05-09T14:29:25.469Z,4.57
2018-05-09T14:31:52.977Z,5.10
2018-05-09T14:34:20.514Z,4.83
2018-05-09T14:36:48.044Z,5.00
2018-05-09T14:39:22.344Z,4.30
2018-05-09T14:41:49.894Z,5.10
2018-05-09T14:44:17.449Z,4.40
2018-05-09T14:46:45.059Z,5.10
2018-05-09T14:49:12.586Z,4.93
2018-05-09T14:51:40.937Z,4.70
2018-05-09T14:54:08.439Z,4.60
2018-05-09T14:56:36.029Z,4.80
2018-05-09T14:59:04.298Z,4.00
2018-05-09T15:01:31.823Z,4.50
2018-05-09T15:03:59.321Z,4.37
2018-05-09T15:06:26.846Z,5.10
2018-05-09T15:08:54.358Z,4.83
2018-05-09T15:11:21.871Z,4.60
2018-05-09T15:13:50.157Z,4.00
2018-05-09T15:16:17.724Z,4.17
2018-05-09T15:18:45.998Z,4.53
2018-05-09T15:21:13.831Z,4.30
2018-05-09T15:23:41.336Z,4.33
2018-05-09T15:26:08.861Z,4.10
2018-05-09T15:28:36.360Z,4.03
2018-05-09T15:31:03.936Z,4.13
2018-05-09T15:33:31.447Z,4.20
2018-05-09T15:35:59.745Z,4.60
2018-05-09T15:38:28.151Z,4.20
2018-05-09T15:40:55.673Z,5.10
2018-05-09T15:43:23.185Z,4.80
2018-05-09T15:45:51.492Z,4.17
2018-05-09T15:48:19.052Z,5.00
2018-05-09T15:50:46.646Z,4.77
2018-05-09T15:53:14.365Z,5.10
2018-05-09T15:55:41.917Z,5.30
2018-05-09T15:58:09.765Z,5.40
2018-05-09T16:00:37.500Z,5.97
2018-05-09T16:03:05.488Z,4.90
2018-05-09T16:05:33.802Z,5.47
2018-05-09T16:08:01.581Z,5.20
2018-05-09T16:10:29.369Z,5.93
2018-05-09T16:12:56.977Z,4.93
2018-05-09T16:15:24.764Z,5.73
2018-05-09T16:17:52.308Z,4.70
2018-05-09T16:20:19.874Z,5.90
2018-05-09T16:22:47.462Z,5.20
2018-05-09T16:25:14.992Z,5.10
2018-05-09T16:27:43.355Z,5.13
2018-05-09T16:30:11.065Z,6.00
2018-05-09T16:32:44.381Z,5.60
2018-05-09T16:35:12.022Z,5.27
2018-05-09T16:37:39.608Z,5.20
2018-05-09T16:40:07.144Z,5.40
2018-05-09T16:42:34.723Z,5.10
2018-05-09T16:45:02.321Z,4.97
2018-05-09T16:47:30.684Z,5.47
2018-05-09T16:49:58.244Z,4.60
2018-05-09T16:52:25.764Z,5.07
2018-05-09T16:54:54.041Z,5.50
2018-05-09T16:57:22.390Z,4.87
2018-05-09T16:59:49.969Z,5.33
2018-05-09T17:02:17.849Z,5.37
2018-05-09T17:04:45.412Z,5.10
2018-05-09T17:07:13.004Z,5.37
2018-05-09T17:09:40.490Z,5.27
2018-05-09T17:12:08.790Z,5.30
2018-05-09T17:14:37.061Z,4.77
2018-05-09T17:17:04.632Z,5.10
2018-05-09T17:19:32.216Z,4.60
2018-05-09T17:22:17.953Z,5.17
2018-05-09T17:24:45.529Z,6.03
2018-05-09T17:27:13.008Z,5.67
2018-05-09T17:29:40.530Z,5.87
2018-05-09T17:32:08.821Z,5.77
2018-05-09T17:34:37.098Z,6.00
2018-05-09T17:37:04.628Z,5.57
2018-05-09T17:39:32.181Z,6.23
2018-05-09T17:41:59.700Z,5.60
2018-05-09T17:44:27.198Z,6.03
2018-05-09T17:46:55.510Z,5.63
2018-05-09T17:49:23.027Z,6.17
2018-05-09T17:51:50.558Z,6.90
2018-05-09T17:54:18.061Z,5.63
2018-05-09T17:56:45.596Z,6.57
2018-05-09T17:59:13.165Z,5.47
2018-05-09T18:01:40.683Z,6.17
2018-05-09T18:04:08.330Z,7.77
2018-05-09T18:06:35.839Z,8.80
2018-05-09T18:09:03.387Z,13.93
2018-05-09T18:11:30.958Z,20.47
2018-05-09T18:13:58.491Z,15.97
2018-05-09T18:16:26.012Z,15.50
2018-05-09T18:18:54.186Z,14.10
2018-05-09T18:21:21.713Z,10.27
2018-05-09T18:23:50.014Z,9.83
2018-05-09T18:26:17.533Z,8.10
2018-05-09T18:28:45.154Z,7.70
2018-05-09T18:31:12.726Z,9.90
2018-05-09T18:33:40.324Z,12.50
2018-05-09T18:36:07.868Z,15.57
2018-05-09T18:38:35.401Z,13.60
2018-05-09T18:41:02.938Z,12.23
2018-05-09T18:43:30.474Z,13.33
2018-05-09T18:45:58.775Z,12.97
2018-05-09T18:48:26.307Z,11.27
2018-05-09T18:50:53.819Z,10.57
2018-05-09T18:53:21.351Z,10.13
2018-05-09T18:55:49.198Z,10.07
2018-05-09T18:58:16.715Z,8.70
2018-05-09T19:00:44.989Z,8.03
2018-05-09T19:03:12.513Z,7.13
2018-05-09T19:05:40.164Z,6.70
2018-05-09T19:08:08.445Z,7.53
2018-05-09T19:10:36.743Z,8.37
2018-05-09T19:13:05.029Z,7.57
2018-05-09T19:15:33.297Z,7.93
2018-05-09T19:18:00.832Z,12.10
2018-05-09T19:20:28.349Z,9.27
2018-05-09T19:22:56.751Z,14.40
2018-05-09T19:25:25.062Z,17.60
2018-05-09T19:27:52.597Z,18.97
2018-05-09T19:30:20.194Z,21.57
2018-05-09T19:32:47.721Z,20.93
2018-05-09T19:35:15.260Z,21.13
2018-05-09T19:37:42.835Z,25.47
2018-05-09T19:40:10.402Z,30.50
2018-05-09T19:42:37.936Z,27.47
2018-05-09T19:45:05.467Z,26.47
2018-05-09T19:47:32.972Z,27.23
2018-05-09T19:50:00.601Z,28.27
2018-05-09T19:52:28.129Z,26.50
2018-05-09T19:54:56.424Z,26.40
2018-05-09T19:57:24.715Z,26.03
2018-05-09T19:59:52.350Z,24.87
2018-05-09T20:02:19.881Z,24.87
2018-05-09T20:04:47.874Z,22.83
2018-05-09T20:07:15.439Z,24.60
2018-05-09T20:09:42.989Z,22.60
2018-05-09T20:12:11.295Z,23.60
2018-05-09T20:14:38.836Z,24.60
2018-05-09T20:17:07.112Z,23.83
2018-05-09T20:19:34.654Z,22.47
2018-05-09T20:22:02.190Z,20.70
2018-05-09T20:24:29.731Z,22.60
2018-05-09T20:26:57.241Z,22.97
2018-05-09T20:29:24.809Z,22.60
2018-05-09T20:32:04.148Z,22.33
2018-05-09T20:34:32.460Z,21.87
2018-05-09T20:36:59.975Z,21.37
2018-05-09T20:39:28.313Z,21.60
2018-05-09T20:41:55.869Z,21.90
2018-05-09T20:44:24.159Z,20.17
2018-05-09T20:46:52.435Z,22.33
2018-05-09T20:49:20.741Z,19.40
2018-05-09T20:51:51.293Z,19.73
2018-05-09T20:54:18.857Z,22.03
2018-05-09T20:56:46.403Z,24.03
2018-05-09T20:59:13.948Z,22.97
2018-05-09T21:01:47.334Z,24.57
2018-05-09T21:04:14.876Z,24.30
2018-05-09T21:06:43.177Z,24.40
2018-05-09T21:09:10.858Z,24.07
2018-05-09T21:11:38.321Z,24.40
2018-05-09T21:14:05.865Z,24.53
2018-05-09T21:16:33.380Z,25.27
2018-05-09T21:19:00.957Z,25.37
2018-05-09T21:21:28.495Z,24.53
2018-05-09T21:23:56.780Z,26.20
2018-05-09T21:26:25.075Z,25.00
2018-05-09T21:28:53.351Z,24.50
2018-05-09T21:31:21.649Z,27.57
2018-05-09T21:33:49.214Z,27.33
2018-05-09T21:36:17.505Z,29.00
2018-05-09T21:38:45.825Z,28.70
2018-05-09T21:41:13.365Z,25.47
2018-05-09T21:43:41.689Z,28.30
2018-05-09T21:46:09.226Z,30.03
2018-05-09T21:48:37.548Z,27.43
2018-05-09T21:51:05.080Z,29.33
2018-05-09T21:53:32.661Z,28.30
2018-05-09T21:56:00.198Z,29.30
2018-05-09T21:58:27.743Z,30.00
2018-05-09T22:00:55.314Z,30.60
2018-05-09T22:03:22.828Z,30.10
2018-05-09T22:05:50.356Z,29.63
2018-05-09T22:08:17.909Z,31.57
2018-05-09T22:10:45.516Z,31.90
2018-05-09T22:13:13.752Z,30.37
2018-05-09T22:15:42.055Z,31.83
2018-05-09T22:18:10.324Z,32.60
2018-05-09T22:20:38.013Z,33.03
2018-05-09T22:23:06.325Z,33.57
2018-05-09T22:25:33.847Z,35.40
2018-05-09T22:28:01.357Z,34.13
2018-05-09T22:30:28.951Z,32.20
2018-05-09T22:32:56.482Z,32.97
2018-05-09T22:35:24.802Z,34.13
2018-05-09T22:37:52.366Z,35.63
2018-05-09T22:40:19.954Z,34.90
2018-05-09T22:42:47.468Z,35.70
2018-05-09T22:45:15.044Z,33.50
2018-05-09T22:47:42.648Z,34.77
2018-05-09T22:50:11.006Z,34.50
2018-05-09T22:52:38.559Z,37.33
2018-05-09T22:55:06.077Z,35.43
2018-05-09T22:57:34.398Z,33.97
2018-05-09T23:00:01.932Z,35.70
2018-05-09T23:02:30.242Z,36.87
2018-05-09T23:04:57.870Z,38.57
2018-05-09T23:07:25.428Z,38.63
2018-05-09T23:09:52.947Z,35.87
2018-05-09T23:12:21.246Z,38.50
2018-05-09T23:14:48.800Z,37.10
2018-05-09T23:17:17.106Z,38.43
2018-05-09T23:19:45.400Z,38.20
2018-05-09T23:22:12.956Z,35.50
2018-05-09T23:24:41.255Z,35.10
2018-05-09T23:27:09.559Z,35.90
2018-05-09T23:29:37.144Z,34.50
2018-05-09T23:32:04.712Z,35.17
2018-05-09T23:34:32.227Z,34.30
2018-05-09T23:37:01.301Z,32.80
2018-05-09T23:39:28.921Z,34.50
2018-05-09T23:41:56.386Z,35.10
2018-05-09T23:44:25.420Z,36.77
2018-05-09T23:46:52.966Z,37.27
2018-05-09T23:49:21.275Z,36.47
2018-05-09T23:51:49.607Z,35.60
2018-05-09T23:54:17.199Z,34.90
2018-05-09T23:56:44.757Z,34.67
2018-05-09T23:59:12.369Z,33.80
